createdAt,value
2018-07-08T00:00:10.843Z,8.20
2018-07-08T00:01:10.796Z,8.00
2018-07-08T00:02:10.725Z,8.10
2018-07-08T00:03:10.663Z,8.30
2018-07-08T00:04:10.604Z,5.90
2018-07-08T00:05:10.543Z,8.20
2018-07-08T00:06:10.480Z,11.20
2018-07-08T00:07:10.420Z,10.90
2018-07-08T00:08:10.361Z,9.70
2018-07-08T00:09:10.301Z,5.80
2018-07-08T00:10:10.242Z,7.10
2018-07-08T00:11:10.185Z,7.20
2018-07-08T00:12:10.120Z,9.50
2018-07-08T00:13:10.064Z,7.80
2018-07-08T00:14:10.003Z,7.20
2018-07-08T00:15:09.948Z,7.70
2018-07-08T00:16:09.881Z,8.80
2018-07-08T00:17:09.820Z,9.30
2018-07-08T00:18:09.763Z,8.30
2018-07-08T00:19:09.697Z,6.90
2018-07-08T00:20:09.640Z,7.30
2018-07-08T00:21:09.581Z,7.30
2018-07-08T00:22:09.520Z,8.20
2018-07-08T00:23:09.461Z,10.20
2018-07-08T00:24:09.400Z,9.20
2018-07-08T00:25:09.348Z,11.10
2018-07-08T00:26:09.276Z,8.90
2018-07-08T00:27:09.219Z,7.70
2018-07-08T00:28:09.164Z,9.00
2018-07-08T00:29:09.099Z,6.70
2018-07-08T00:30:09.037Z,11.30
2018-07-08T00:31:08.979Z,7.90
2018-07-08T00:32:08.916Z,7.80
2018-07-08T00:33:08.857Z,8.60
2018-07-08T00:34:08.800Z,8.80
2018-07-08T00:35:08.739Z,9.10
2018-07-08T00:36:08.679Z,10.60
2018-07-08T00:37:08.616Z,8.30
2018-07-08T00:38:08.555Z,9.00
2018-07-08T00:39:08.495Z,9.60
2018-07-08T00:40:08.440Z,7.30
2018-07-08T00:41:08.373Z,11.60
2018-07-08T00:42:08.315Z,8.80
2018-07-08T00:43:08.256Z,9.80
2018-07-08T00:44:08.204Z,4.90
2018-07-08T00:45:08.134Z,10.20
2018-07-08T00:46:08.076Z,11.90
2018-07-08T00:47:08.020Z,9.40
2018-07-08T00:48:07.957Z,12.00
2018-07-08T00:49:07.897Z,7.70
2018-07-08T00:50:07.832Z,6.30
2018-07-08T00:51:07.770Z,9.70
2018-07-08T00:52:07.712Z,8.30
2018-07-08T00:53:07.652Z,8.90
2018-07-08T00:54:07.591Z,9.00
2018-07-08T00:55:07.532Z,5.70
2018-07-08T00:56:07.474Z,8.50
2018-07-08T00:57:07.420Z,10.60
2018-07-08T00:58:07.346Z,11.40
2018-07-08T00:59:07.288Z,8.30
2018-07-08T01:00:07.234Z,7.00
2018-07-08T01:01:07.165Z,9.20
2018-07-08T01:02:07.103Z,6.30
2018-07-08T01:03:07.048Z,8.40
2018-07-08T01:04:06.984Z,6.40
2018-07-08T01:05:06.926Z,8.30
2018-07-08T01:06:06.866Z,8.20
2018-07-08T01:07:06.805Z,10.10
2018-07-08T01:08:06.749Z,9.10
2018-07-08T01:09:06.687Z,9.80
2018-07-08T01:10:06.621Z,11.10
2018-07-08T01:11:06.560Z,10.30
2018-07-08T01:12:06.501Z,11.90
2018-07-08T01:13:06.440Z,9.90
2018-07-08T01:14:06.381Z,11.90
2018-07-08T01:15:06.320Z,8.40
2018-07-08T01:16:06.254Z,9.20
2018-07-08T01:17:06.197Z,5.80
2018-07-08T01:18:06.139Z,7.80
2018-07-08T01:19:06.076Z,10.40
2018-07-08T01:20:06.015Z,7.20
2018-07-08T01:21:05.955Z,7.90
2018-07-08T01:22:05.891Z,8.80
2018-07-08T01:23:05.831Z,8.60
2018-07-08T01:24:05.772Z,8.00
2018-07-08T01:25:05.710Z,7.80
2018-07-08T01:26:05.650Z,10.40
2018-07-08T01:27:05.589Z,7.50
2018-07-08T01:28:05.530Z,8.00
2018-07-08T01:29:05.468Z,9.80
2018-07-08T01:30:05.405Z,6.90
2018-07-08T01:31:05.344Z,8.60
2018-07-08T01:32:05.288Z,7.50
2018-07-08T01:33:05.223Z,10.20
2018-07-08T01:34:05.166Z,8.00
2018-07-08T01:35:05.101Z,9.30
2018-07-08T01:36:05.040Z,10.10
2018-07-08T01:37:04.980Z,9.40
2018-07-08T01:38:04.918Z,9.40
2018-07-08T01:39:04.862Z,8.10
2018-07-08T01:40:04.800Z,9.60
2018-07-08T01:41:04.739Z,8.40
2018-07-08T01:42:04.674Z,7.90
2018-07-08T01:43:04.614Z,11.20
2018-07-08T01:44:04.550Z,10.70
2018-07-08T01:45:04.493Z,11.60
2018-07-08T01:46:04.440Z,6.70
2018-07-08T01:47:04.371Z,7.90
2018-07-08T01:48:04.310Z,8.40
2018-07-08T01:49:04.251Z,10.70
2018-07-08T01:50:04.189Z,10.20
2018-07-08T01:51:04.128Z,9.90
2018-07-08T01:52:04.072Z,11.90
2018-07-08T01:53:04.008Z,8.30
2018-07-08T01:54:03.947Z,9.70
2018-07-08T01:55:03.886Z,7.70
2018-07-08T01:56:03.823Z,7.40
2018-07-08T01:57:03.764Z,9.20
2018-07-08T01:58:03.710Z,9.60
2018-07-08T01:59:03.636Z,9.10
2018-07-08T02:00:03.579Z,12.00
2018-07-08T02:01:03.518Z,7.50
2018-07-08T02:02:03.458Z,8.20
2018-07-08T02:03:03.397Z,9.80
2018-07-08T02:04:03.335Z,9.60
2018-07-08T02:05:03.277Z,9.50
2018-07-08T02:06:03.215Z,9.70
2018-07-08T02:07:03.186Z,8.80
2018-07-08T02:08:03.089Z,10.30
2018-07-08T02:09:03.032Z,14.80
2018-07-08T02:10:02.967Z,19.00
2018-07-08T02:11:02.906Z,24.00
2018-07-08T02:12:02.846Z,17.10
2018-07-08T02:13:02.782Z,30.00
2018-07-08T02:14:02.727Z,22.30
2018-07-08T02:15:02.665Z,18.10
2018-07-08T02:16:02.601Z,10.10
2018-07-08T02:17:02.549Z,15.90
2018-07-08T02:18:02.480Z,12.00
2018-07-08T02:19:02.416Z,15.30
2018-07-08T02:20:02.356Z,13.20
2018-07-08T02:21:02.298Z,20.90
2018-07-08T02:22:02.232Z,17.00
2018-07-08T02:23:02.179Z,12.00
2018-07-08T02:24:02.113Z,10.70
2018-07-08T02:25:02.056Z,13.60
2018-07-08T02:26:01.991Z,11.90
2018-07-08T02:27:01.937Z,8.60
2018-07-08T02:28:01.870Z,12.60
2018-07-08T02:29:01.821Z,10.50
2018-07-08T02:30:01.745Z,17.20
2018-07-08T02:31:01.680Z,13.30
2018-07-08T02:32:01.621Z,12.60
2018-07-08T02:33:01.560Z,10.30
2018-07-08T02:34:01.512Z,8.70
2018-07-08T02:35:01.439Z,8.80
2018-07-08T02:36:01.377Z,10.40
2018-07-08T02:37:01.310Z,12.00
2018-07-08T02:38:01.263Z,11.20
2018-07-08T02:39:01.196Z,14.00
2018-07-08T02:40:01.131Z,9.90
2018-07-08T02:41:01.085Z,9.90
2018-07-08T02:42:01.009Z,9.60
2018-07-08T02:43:00.945Z,8.90
2018-07-08T02:44:00.886Z,9.00
2018-07-08T02:45:00.825Z,16.00
2018-07-08T02:46:00.767Z,11.20
2018-07-08T02:47:00.704Z,10.10
2018-07-08T02:48:00.643Z,10.30
2018-07-08T02:49:00.579Z,16.00
2018-07-08T02:50:00.519Z,9.80
2018-07-08T02:51:00.458Z,10.60
2018-07-08T02:52:00.394Z,13.30
2018-07-08T02:53:00.343Z,10.20
2018-07-08T02:54:00.272Z,12.00
2018-07-08T02:55:00.222Z,9.10
2018-07-08T02:56:00.148Z,9.90
2018-07-08T02:57:00.103Z,12.20
2018-07-08T02:58:00.035Z,16.80
2018-07-08T02:58:59.976Z,13.90
2018-07-08T02:59:59.908Z,12.20
2018-07-08T03:00:59.847Z,14.00
2018-07-08T03:01:59.783Z,10.50
2018-07-08T03:02:59.721Z,10.50
2018-07-08T03:03:59.658Z,13.00
2018-07-08T03:04:59.599Z,11.20
2018-07-08T03:05:59.540Z,18.30
2018-07-08T03:06:59.476Z,12.20
2018-07-08T03:07:59.414Z,9.80
2018-07-08T03:08:59.353Z,12.50
2018-07-08T03:09:59.290Z,11.20
2018-07-08T03:10:59.232Z,7.20
2018-07-08T03:11:59.174Z,12.30
2018-07-08T03:12:59.115Z,13.10
2018-07-08T03:13:59.045Z,10.40
2018-07-08T03:14:58.985Z,12.50
2018-07-08T03:15:58.925Z,13.10
2018-07-08T03:16:58.867Z,9.60
2018-07-08T03:17:58.802Z,13.50
2018-07-08T03:18:58.739Z,8.40
2018-07-08T03:19:58.676Z,9.00
2018-07-08T03:20:58.618Z,10.30
2018-07-08T03:21:58.553Z,11.80
2018-07-08T03:22:58.489Z,12.00
2018-07-08T03:23:58.437Z,10.40
2018-07-08T03:24:58.379Z,11.20
2018-07-08T03:25:58.307Z,10.10
2018-07-08T03:26:58.247Z,10.70
2018-07-08T03:27:58.187Z,11.30
2018-07-08T03:28:58.121Z,10.20
2018-07-08T03:29:58.064Z,8.00
2018-07-08T03:30:58.009Z,9.50
2018-07-08T03:31:57.939Z,12.30
2018-07-08T03:32:57.881Z,11.90
2018-07-08T03:33:57.825Z,13.40
2018-07-08T03:34:57.756Z,11.80
2018-07-08T03:35:57.694Z,9.80
2018-07-08T03:36:57.635Z,11.00
2018-07-08T03:37:57.571Z,12.40
2018-07-08T03:38:57.512Z,10.10
2018-07-08T03:39:57.453Z,10.60
2018-07-08T03:40:57.384Z,9.00
2018-07-08T03:41:57.327Z,10.90
2018-07-08T03:42:57.268Z,8.60
2018-07-08T03:43:57.204Z,10.90
2018-07-08T03:44:57.143Z,8.60
2018-07-08T03:45:57.082Z,13.00
2018-07-08T03:46:57.013Z,14.40
2018-07-08T03:47:56.961Z,10.80
2018-07-08T03:48:56.893Z,8.60
2018-07-08T03:49:56.830Z,9.60
2018-07-08T03:50:56.777Z,11.70
2018-07-08T03:51:56.722Z,10.10
2018-07-08T03:52:56.652Z,11.20
2018-07-08T03:53:56.586Z,13.00
2018-07-08T03:54:56.528Z,13.10
2018-07-08T03:55:56.465Z,9.00
2018-07-08T03:56:56.404Z,11.60
2018-07-08T03:57:56.340Z,11.60
2018-07-08T03:58:56.278Z,10.90
2018-07-08T03:59:56.217Z,10.50
2018-07-08T04:00:56.157Z,13.60
2018-07-08T04:01:56.098Z,13.80
2018-07-08T04:02:56.031Z,9.10
2018-07-08T04:03:55.974Z,13.60
2018-07-08T04:04:55.913Z,14.50
2018-07-08T04:05:55.853Z,13.80
2018-07-08T04:06:55.789Z,13.70
2018-07-08T04:07:55.724Z,11.80
2018-07-08T04:08:55.662Z,12.10
2018-07-08T04:09:55.602Z,11.50
2018-07-08T04:10:55.540Z,14.50
2018-07-08T04:11:55.479Z,11.80
2018-07-08T04:12:55.417Z,11.90
2018-07-08T04:13:55.357Z,12.90
2018-07-08T04:14:55.295Z,12.20
2018-07-08T04:15:55.235Z,10.90
2018-07-08T04:16:55.172Z,12.70
2018-07-08T04:17:55.109Z,10.30
2018-07-08T04:18:55.049Z,8.40
2018-07-08T04:19:54.987Z,8.00
2018-07-08T04:20:54.926Z,8.40
2018-07-08T04:21:54.866Z,9.60
2018-07-08T04:22:54.804Z,10.20
2018-07-08T04:23:54.741Z,10.90
2018-07-08T04:24:54.682Z,12.80
2018-07-08T04:25:54.622Z,18.10
2018-07-08T04:26:54.557Z,17.50
2018-07-08T04:27:54.496Z,13.50
2018-07-08T04:28:54.438Z,13.20
2018-07-08T04:29:54.372Z,13.30
2018-07-08T04:30:54.309Z,10.20
2018-07-08T04:31:54.251Z,12.20
2018-07-08T04:32:54.189Z,12.10
2018-07-08T04:33:54.134Z,13.10
2018-07-08T04:34:54.069Z,7.50
2018-07-08T04:35:54.007Z,11.00
2018-07-08T04:36:53.947Z,9.20
2018-07-08T04:37:53.882Z,13.10
2018-07-08T04:38:53.822Z,12.40
2018-07-08T04:39:53.760Z,13.10
2018-07-08T04:40:53.699Z,13.60
2018-07-08T04:41:53.638Z,11.90
2018-07-08T04:42:53.580Z,13.30
2018-07-08T04:43:53.518Z,11.50
2018-07-08T04:44:53.457Z,9.20
2018-07-08T04:45:53.394Z,13.00
2018-07-08T04:46:53.332Z,7.00
2018-07-08T04:47:53.273Z,11.60
2018-07-08T04:48:53.215Z,11.90
2018-07-08T04:49:53.148Z,10.00
2018-07-08T04:50:53.085Z,13.20
2018-07-08T04:51:53.026Z,9.90
2018-07-08T04:52:52.964Z,12.60
2018-07-08T04:53:52.903Z,10.20
2018-07-08T04:54:52.847Z,15.70
2018-07-08T04:55:52.784Z,8.50
2018-07-08T04:56:52.725Z,9.80
2018-07-08T04:57:52.658Z,11.70
2018-07-08T04:58:52.598Z,8.10
2018-07-08T04:59:52.539Z,12.20
2018-07-08T05:00:52.554Z,12.90
2018-07-08T05:01:52.413Z,13.30
2018-07-08T05:02:52.354Z,13.70
2018-07-08T05:03:52.292Z,8.50
2018-07-08T05:04:52.230Z,9.20
2018-07-08T05:05:52.177Z,10.30
2018-07-08T05:06:52.124Z,12.20
2018-07-08T05:07:52.049Z,9.30
2018-07-08T05:08:51.997Z,13.50
2018-07-08T05:09:51.935Z,12.80
2018-07-08T05:10:51.866Z,11.50
2018-07-08T05:11:51.808Z,7.70
2018-07-08T05:12:51.753Z,11.80
2018-07-08T05:13:51.686Z,9.30
2018-07-08T05:14:51.625Z,8.80
2018-07-08T05:15:51.563Z,12.90
2018-07-08T05:16:51.499Z,9.90
2018-07-08T05:17:51.442Z,10.30
2018-07-08T05:18:51.384Z,12.80
2018-07-08T05:19:51.322Z,9.20
2018-07-08T05:20:51.261Z,11.50
2018-07-08T05:21:51.199Z,12.30
2018-07-08T05:22:51.131Z,11.50
2018-07-08T05:23:51.089Z,10.90
2018-07-08T05:24:51.015Z,15.40
2018-07-08T05:25:50.959Z,16.00
2018-07-08T05:26:50.894Z,11.00
2018-07-08T05:27:50.835Z,8.00
2018-07-08T05:28:50.776Z,11.70
2018-07-08T05:29:50.731Z,7.40
2018-07-08T05:30:50.646Z,13.20
2018-07-08T05:31:50.599Z,11.80
2018-07-08T05:32:50.531Z,14.20
2018-07-08T05:33:50.464Z,16.20
2018-07-08T05:34:50.415Z,11.50
2018-07-08T05:35:50.348Z,11.90
2018-07-08T05:36:50.286Z,10.60
2018-07-08T05:37:50.231Z,9.20
2018-07-08T05:38:50.167Z,7.80
2018-07-08T05:39:50.109Z,10.40
2018-07-08T05:40:50.051Z,9.50
2018-07-08T05:41:49.984Z,11.40
2018-07-08T05:42:49.924Z,12.30
2018-07-08T05:43:49.864Z,10.80
2018-07-08T05:44:49.805Z,15.20
2018-07-08T05:45:49.744Z,10.30
2018-07-08T05:46:49.683Z,10.40
2018-07-08T05:47:49.625Z,12.70
2018-07-08T05:48:49.563Z,11.30
2018-07-08T05:49:49.505Z,10.70
2018-07-08T05:50:49.444Z,11.90
2018-07-08T05:51:49.385Z,14.40
2018-07-08T05:52:49.327Z,10.00
2018-07-08T05:53:49.263Z,10.80
2018-07-08T05:54:49.204Z,11.40
2018-07-08T05:55:49.139Z,11.90
2018-07-08T05:56:49.086Z,16.50
2018-07-08T05:57:49.022Z,12.40
2018-07-08T05:58:48.964Z,14.10
2018-07-08T05:59:48.905Z,16.40
2018-07-08T06:00:48.842Z,11.30
2018-07-08T06:01:48.781Z,12.70
2018-07-08T06:02:48.721Z,8.70
2018-07-08T06:03:48.661Z,13.70
2018-07-08T06:04:48.603Z,12.10
2018-07-08T06:05:48.539Z,13.20
2018-07-08T06:06:48.488Z,15.20
2018-07-08T06:07:48.418Z,12.40
2018-07-08T06:08:48.359Z,14.40
2018-07-08T06:09:48.302Z,10.90
2018-07-08T06:10:48.240Z,12.90
2018-07-08T06:11:48.180Z,13.40
2018-07-08T06:12:48.120Z,8.40
2018-07-08T06:13:48.060Z,15.90
2018-07-08T06:14:47.995Z,11.40
2018-07-08T06:15:47.936Z,11.30
2018-07-08T06:16:47.901Z,13.40
2018-07-08T06:17:47.819Z,10.90
2018-07-08T06:18:47.756Z,9.50
2018-07-08T06:19:47.694Z,13.00
2018-07-08T06:20:47.635Z,10.40
2018-07-08T06:21:47.575Z,11.90
2018-07-08T06:22:47.515Z,10.40
2018-07-08T06:23:47.454Z,10.90
2018-07-08T06:24:47.395Z,13.10
2018-07-08T06:25:47.331Z,10.10
2018-07-08T06:26:47.272Z,13.00
2018-07-08T06:27:47.212Z,14.30
2018-07-08T06:28:47.153Z,11.80
2018-07-08T06:29:47.092Z,13.60
2018-07-08T06:30:47.032Z,19.30
2018-07-08T06:31:47.053Z,17.40
2018-07-08T06:32:46.911Z,13.00
2018-07-08T06:33:46.846Z,14.90
2018-07-08T06:34:46.789Z,15.30
2018-07-08T06:35:46.735Z,16.40
2018-07-08T06:36:46.671Z,19.20
2018-07-08T06:37:46.610Z,12.60
2018-07-08T06:38:46.551Z,13.40
2018-07-08T06:39:46.491Z,10.80
2018-07-08T06:40:46.432Z,12.60
2018-07-08T06:41:46.379Z,12.00
2018-07-08T06:42:46.322Z,15.50
2018-07-08T06:43:46.252Z,19.00
2018-07-08T06:44:46.197Z,17.10
2018-07-08T06:45:46.143Z,19.30
2018-07-08T06:46:46.070Z,18.60
2018-07-08T06:47:46.011Z,15.40
2018-07-08T06:50:19.060Z,16.20
2018-07-08T06:51:18.973Z,18.20
2018-07-08T06:53:13.386Z,18.30
2018-07-08T06:54:13.188Z,16.80
2018-07-08T06:56:07.101Z,22.50
2018-07-08T06:57:06.396Z,22.50
2018-07-08T06:58:59.711Z,13.00
2018-07-08T06:59:59.611Z,17.50
2018-07-08T07:01:52.919Z,20.90
2018-07-08T07:02:52.833Z,22.10
2018-07-08T07:03:52.778Z,18.00
2018-07-08T07:04:52.712Z,19.00
2018-07-08T07:05:52.652Z,19.30
2018-07-08T07:06:52.596Z,16.90
2018-07-08T07:07:52.541Z,19.70
2018-07-08T07:08:52.479Z,13.30
2018-07-08T07:09:52.418Z,18.00
2018-07-08T07:10:52.353Z,18.90
2018-07-08T07:11:52.297Z,22.10
2018-07-08T07:12:52.237Z,27.60
2018-07-08T07:13:52.177Z,24.10
2018-07-08T07:14:52.119Z,19.40
2018-07-08T07:15:52.056Z,14.20
2018-07-08T07:16:51.995Z,18.40
2018-07-08T07:17:51.939Z,23.80
2018-07-08T07:18:51.880Z,22.10
2018-07-08T07:19:51.817Z,20.70
2018-07-08T07:20:51.761Z,16.00
2018-07-08T07:21:51.705Z,19.70
2018-07-08T07:22:51.680Z,18.70
2018-07-08T07:23:51.583Z,18.40
2018-07-08T07:24:51.528Z,18.30
2018-07-08T07:25:51.463Z,21.70
2018-07-08T07:26:51.406Z,19.50
2018-07-08T07:27:51.343Z,15.70
2018-07-08T07:28:51.290Z,18.70
2018-07-08T07:29:51.226Z,16.20
2018-07-08T07:30:51.180Z,20.30
2018-07-08T07:31:51.108Z,25.30
2018-07-08T07:32:51.051Z,18.80
2018-07-08T07:33:50.989Z,21.90
2018-07-08T07:34:50.927Z,16.90
2018-07-08T07:35:50.873Z,13.90
2018-07-08T07:36:50.815Z,16.90
2018-07-08T07:37:50.758Z,14.20
2018-07-08T07:38:50.697Z,19.40
2018-07-08T07:39:50.635Z,16.10
2018-07-08T07:40:50.576Z,18.00
2018-07-08T07:41:50.517Z,18.90
2018-07-08T07:42:50.457Z,19.10
2018-07-08T07:43:50.399Z,18.80
2018-07-08T07:44:50.342Z,21.00
2018-07-08T07:45:50.280Z,20.90
2018-07-08T07:46:50.221Z,19.70
2018-07-08T07:47:50.169Z,23.50
2018-07-08T07:48:50.099Z,27.10
2018-07-08T07:49:50.049Z,24.90
2018-07-08T07:50:49.986Z,24.50
2018-07-08T07:51:52.498Z,28.70
2018-07-08T07:53:10.860Z,23.10
2018-07-08T07:53:49.811Z,17.70
2018-07-08T07:54:49.753Z,18.20
2018-07-08T07:55:49.699Z,23.20
2018-07-08T07:56:49.637Z,23.50
2018-07-08T07:57:49.575Z,25.10
2018-07-08T07:58:49.514Z,23.30
2018-07-08T07:59:49.476Z,23.30
2018-07-08T08:00:49.401Z,25.30
2018-07-08T08:01:49.346Z,24.20
2018-07-08T08:02:49.279Z,25.30
2018-07-08T08:03:49.225Z,19.80
2018-07-08T08:04:49.166Z,18.60
2018-07-08T08:05:49.110Z,22.40
2018-07-08T08:06:49.051Z,32.00
2018-07-08T08:07:48.991Z,20.80
2018-07-08T08:08:48.939Z,22.90
2018-07-08T08:09:48.873Z,13.90
2018-07-08T08:10:48.856Z,18.50
2018-07-08T08:11:48.759Z,22.10
2018-07-08T08:12:48.703Z,16.30
2018-07-08T08:13:48.648Z,19.00
2018-07-08T08:14:48.586Z,18.20
2018-07-08T08:15:48.533Z,16.40
2018-07-08T08:16:48.475Z,18.20
2018-07-08T08:17:48.412Z,20.70
2018-07-08T08:18:48.359Z,15.60
2018-07-08T08:19:48.292Z,27.70
2018-07-08T08:20:48.235Z,15.90
2018-07-08T08:21:48.337Z,27.40
2018-07-08T08:22:48.120Z,26.20
2018-07-08T08:23:48.066Z,25.80
2018-07-08T08:24:48.001Z,19.40
2018-07-08T08:25:47.955Z,23.20
2018-07-08T08:26:47.933Z,23.30
2018-07-08T08:27:47.830Z,23.50
2018-07-08T08:28:47.768Z,25.30
2018-07-08T08:29:47.712Z,20.60
2018-07-08T08:30:47.652Z,23.40
2018-07-08T08:31:47.597Z,22.60
2018-07-08T08:32:47.605Z,21.30
2018-07-08T08:33:47.481Z,23.70
2018-07-08T08:34:47.419Z,22.80
2018-07-08T08:35:47.358Z,19.40
2018-07-08T08:36:47.304Z,23.20
2018-07-08T08:37:47.249Z,20.20
2018-07-08T08:38:47.192Z,21.50
2018-07-08T08:39:47.126Z,20.50
2018-07-08T08:40:47.068Z,20.70
2018-07-08T08:41:47.006Z,19.80
2018-07-08T08:42:46.951Z,18.00
2018-07-08T08:43:46.898Z,18.80
2018-07-08T08:44:46.840Z,23.10
2018-07-08T08:45:46.780Z,16.00
2018-07-08T08:46:46.716Z,16.20
2018-07-08T08:47:46.662Z,22.60
2018-07-08T08:48:46.603Z,19.60
2018-07-08T08:49:46.552Z,19.50
2018-07-08T08:50:46.489Z,17.10
2018-07-08T08:51:46.432Z,17.40
2018-07-08T08:52:46.375Z,20.10
2018-07-08T08:53:46.316Z,19.20
2018-07-08T08:54:46.260Z,11.60
2018-07-08T08:55:46.204Z,15.60
2018-07-08T08:56:46.144Z,20.40
2018-07-08T08:57:46.101Z,21.90
2018-07-08T08:58:46.028Z,20.00
2018-07-08T08:59:45.971Z,16.20
2018-07-08T09:00:45.913Z,18.10
2018-07-08T09:01:45.866Z,19.10
2018-07-08T09:02:45.804Z,22.10
2018-07-08T09:03:45.753Z,22.40
2018-07-08T09:04:45.689Z,18.10
2018-07-08T09:05:45.632Z,16.40
2018-07-08T09:06:45.574Z,16.50
2018-07-08T09:07:45.516Z,16.70
2018-07-08T09:08:45.466Z,20.80
2018-07-08T09:09:45.408Z,15.30
2018-07-08T09:10:45.362Z,20.00
2018-07-08T09:11:45.281Z,16.00
2018-07-08T09:12:45.231Z,17.60
2018-07-08T09:13:45.173Z,20.30
2018-07-08T09:14:45.117Z,16.70
2018-07-08T09:15:45.057Z,23.00
2018-07-08T09:16:45.009Z,20.00
2018-07-08T09:17:44.945Z,22.30
2018-07-08T09:18:44.891Z,20.70
2018-07-08T09:19:44.829Z,22.00
2018-07-08T09:20:44.776Z,23.80
2018-07-08T09:21:44.709Z,16.60
2018-07-08T09:22:44.666Z,16.50
2018-07-08T09:23:44.661Z,16.10
2018-07-08T09:24:44.548Z,15.10
2018-07-08T09:25:44.493Z,19.50
2018-07-08T09:26:44.433Z,16.00
2018-07-08T09:27:44.376Z,20.80
2018-07-08T09:28:44.320Z,17.20
2018-07-08T09:29:44.271Z,16.10
2018-07-08T09:30:44.209Z,21.70
2018-07-08T09:31:44.153Z,21.70
2018-07-08T09:32:44.092Z,23.60
2018-07-08T09:33:44.033Z,15.40
2018-07-08T09:34:43.982Z,17.30
2018-07-08T09:35:43.924Z,16.10
2018-07-08T09:36:43.873Z,75.00
2018-07-08T09:37:43.817Z,37.30
2018-07-08T09:38:43.825Z,16.10
2018-07-08T09:39:43.701Z,16.90
2018-07-08T09:40:43.649Z,58.30
2018-07-08T09:41:43.590Z,154.60
2018-07-08T09:42:43.532Z,44.10
2018-07-08T09:43:43.480Z,43.80
2018-07-08T09:44:43.420Z,33.70
2018-07-08T09:45:43.363Z,45.00
2018-07-08T09:46:43.308Z,65.50
2018-07-08T09:47:43.254Z,78.10
2018-07-08T09:48:43.208Z,54.60
2018-07-08T09:49:43.140Z,69.80
2018-07-08T09:50:43.086Z,45.00
2018-07-08T09:51:43.024Z,15.60
2018-07-08T09:52:42.989Z,17.00
2018-07-08T09:53:42.917Z,15.30
2018-07-08T09:54:42.859Z,13.20
2018-07-08T09:55:42.803Z,16.30
2018-07-08T09:56:42.752Z,24.00
2018-07-08T09:57:42.685Z,29.20
2018-07-08T09:58:42.638Z,23.90
2018-07-08T09:59:42.598Z,23.80
2018-07-08T10:00:42.522Z,22.80
2018-07-08T10:01:42.465Z,22.00
2018-07-08T10:02:42.414Z,18.00
2018-07-08T10:03:42.357Z,29.20
2018-07-08T10:04:42.390Z,16.90
2018-07-08T10:05:42.247Z,22.00
2018-07-08T10:06:42.194Z,19.80
2018-07-08T10:07:42.137Z,12.10
2018-07-08T10:08:42.127Z,17.30
2018-07-08T10:09:42.026Z,21.20
2018-07-08T10:10:41.967Z,19.00
2018-07-08T10:11:41.906Z,17.80
2018-07-08T10:12:41.852Z,17.40
2018-07-08T10:13:41.854Z,16.60
2018-07-08T10:14:41.736Z,18.70
2018-07-08T10:15:41.686Z,16.80
2018-07-08T10:16:41.629Z,15.70
2018-07-08T10:17:41.592Z,15.50
2018-07-08T10:18:41.511Z,16.90
2018-07-08T10:19:41.516Z,15.60
2018-07-08T10:20:41.399Z,17.30
2018-07-08T10:21:41.344Z,20.10
2018-07-08T10:22:41.280Z,17.70
2018-07-08T10:23:41.220Z,16.00
2018-07-08T10:24:41.172Z,12.80
2018-07-08T10:25:41.111Z,15.80
2018-07-08T10:26:41.069Z,14.60
2018-07-08T10:27:41.002Z,14.90
2018-07-08T10:28:40.948Z,17.30
2018-07-08T10:29:40.885Z,17.70
2018-07-08T10:30:40.832Z,15.40
2018-07-08T10:31:40.774Z,16.70
2018-07-08T10:32:40.717Z,18.70
2018-07-08T10:33:40.658Z,14.30
2018-07-08T10:34:40.601Z,15.40
2018-07-08T10:35:40.545Z,11.90
2018-07-08T10:36:40.521Z,14.20
2018-07-08T10:37:40.431Z,16.80
2018-07-08T10:38:40.378Z,16.90
2018-07-08T10:39:40.319Z,16.00
2018-07-08T10:40:40.264Z,12.00
2018-07-08T10:41:40.205Z,12.50
2018-07-08T10:42:40.150Z,15.20
2018-07-08T10:43:40.094Z,12.20
2018-07-08T10:44:40.035Z,13.70
2018-07-08T10:45:39.981Z,14.80
2018-07-08T10:46:39.923Z,14.60
2018-07-08T10:47:39.867Z,15.60
2018-07-08T10:48:39.810Z,11.70
2018-07-08T10:49:39.757Z,15.90
2018-07-08T10:50:39.700Z,12.70
2018-07-08T10:51:39.644Z,14.10
2018-07-08T10:52:39.591Z,12.90
2018-07-08T10:53:39.534Z,15.30
2018-07-08T10:54:39.475Z,16.00
2018-07-08T10:55:39.418Z,14.10
2018-07-08T10:56:39.363Z,13.40
2018-07-08T10:57:39.312Z,11.20
2018-07-08T10:58:39.261Z,11.70
2018-07-08T10:59:39.194Z,15.90
2018-07-08T11:00:39.135Z,14.30
2018-07-08T11:01:39.127Z,11.60
2018-07-08T11:02:39.029Z,15.00
2018-07-08T11:03:38.971Z,12.90
2018-07-08T11:04:38.920Z,10.80
2018-07-08T11:05:38.862Z,16.80
2018-07-08T11:06:38.806Z,13.40
2018-07-08T11:07:38.748Z,12.10
2018-07-08T11:08:38.694Z,39.40
2018-07-08T11:09:38.639Z,38.50
2018-07-08T11:10:38.596Z,18.50
2018-07-08T11:11:38.532Z,43.80
2018-07-08T11:12:38.474Z,21.40
2018-07-08T11:13:38.422Z,12.80
2018-07-08T11:14:38.366Z,15.30
2018-07-08T11:15:38.308Z,11.80
2018-07-08T11:16:38.267Z,12.50
2018-07-08T11:17:38.210Z,28.10
2018-07-08T11:18:38.148Z,22.50
2018-07-08T11:19:38.111Z,19.80
2018-07-08T11:20:38.093Z,21.20
2018-07-08T11:21:37.993Z,14.30
2018-07-08T11:22:37.939Z,19.00
2018-07-08T11:23:37.892Z,24.10
2018-07-08T11:24:37.844Z,13.40
2018-07-08T11:25:37.779Z,18.90
2018-07-08T11:26:37.724Z,12.70
2018-07-08T11:27:37.676Z,11.40
2018-07-08T11:28:37.657Z,10.40
2018-07-08T11:29:37.560Z,14.50
2018-07-08T11:30:37.523Z,16.90
2018-07-08T11:31:37.459Z,12.30
2018-07-08T11:32:37.402Z,12.80
2018-07-08T11:33:37.352Z,13.60
2018-07-08T11:34:37.300Z,15.10
2018-07-08T11:35:37.256Z,10.40
2018-07-08T11:36:37.191Z,15.40
2018-07-08T11:37:37.131Z,13.40
2018-07-08T11:38:37.079Z,11.40
2018-07-08T11:39:37.029Z,14.30
2018-07-08T11:40:36.967Z,14.30
2018-07-08T11:41:36.912Z,12.60
2018-07-08T11:42:36.861Z,13.00
2018-07-08T11:43:36.808Z,12.20
2018-07-08T11:44:36.750Z,14.70
2018-07-08T11:45:36.699Z,11.30
2018-07-08T11:46:36.639Z,10.20
2018-07-08T11:47:36.590Z,11.90
2018-07-08T11:48:36.541Z,14.30
2018-07-08T11:49:36.477Z,13.90
2018-07-08T11:50:36.427Z,11.50
2018-07-08T11:51:36.368Z,11.00
2018-07-08T11:52:36.310Z,12.60
2018-07-08T11:53:36.257Z,12.20
2018-07-08T11:54:36.204Z,18.60
2018-07-08T11:55:36.149Z,12.90
2018-07-08T11:56:36.099Z,13.90
2018-07-08T11:57:36.041Z,15.90
2018-07-08T11:58:35.993Z,11.30
2018-07-08T11:59:35.928Z,10.60
2018-07-08T12:00:35.875Z,9.90
2018-07-08T12:01:35.820Z,13.00
2018-07-08T12:02:35.767Z,16.60
2018-07-08T12:03:35.722Z,9.40
2018-07-08T12:04:35.662Z,11.20
2018-07-08T12:05:35.617Z,8.60
2018-07-08T12:06:35.563Z,9.80
2018-07-08T12:07:35.501Z,12.70
2018-07-08T12:08:35.451Z,9.20
2018-07-08T12:09:35.398Z,10.90
2018-07-08T12:10:35.347Z,10.10
2018-07-08T12:11:35.290Z,9.60
2018-07-08T12:12:35.238Z,11.00
2018-07-08T12:13:35.191Z,10.50
2018-07-08T12:14:35.179Z,13.30
2018-07-08T12:15:35.083Z,10.60
2018-07-08T12:16:35.027Z,9.70
2018-07-08T12:17:34.975Z,10.00
2018-07-08T12:18:34.920Z,8.40
2018-07-08T12:19:34.864Z,8.90
2018-07-08T12:20:34.818Z,11.10
2018-07-08T12:21:34.765Z,9.70
2018-07-08T12:22:34.707Z,11.10
2018-07-08T12:23:34.657Z,11.80
2018-07-08T12:24:34.603Z,8.90
2018-07-08T12:25:34.578Z,10.80
2018-07-08T12:26:34.502Z,13.80
2018-07-08T12:27:34.484Z,13.80
2018-07-08T12:28:34.397Z,12.70
2018-07-08T12:29:34.338Z,9.00
2018-07-08T12:30:34.285Z,9.90
2018-07-08T12:31:34.231Z,9.70
2018-07-08T12:32:34.183Z,11.60
2018-07-08T12:33:34.128Z,12.90
2018-07-08T12:34:34.078Z,12.40
2018-07-08T12:35:34.027Z,8.00
2018-07-08T12:36:33.971Z,9.60
2018-07-08T12:37:34.594Z,10.60
2018-07-08T12:38:33.875Z,9.80
2018-07-08T12:39:33.824Z,9.80
2018-07-08T12:40:33.780Z,9.70
2018-07-08T12:41:33.730Z,10.20
2018-07-08T12:42:33.698Z,7.90
2018-07-08T12:43:33.626Z,8.60
2018-07-08T12:44:33.641Z,7.40
2018-07-08T12:45:33.536Z,8.00
2018-07-08T12:46:33.481Z,10.20
2018-07-08T12:47:33.436Z,9.00
2018-07-08T12:48:33.386Z,9.20
2018-07-08T12:49:33.338Z,9.40
2018-07-08T12:50:33.293Z,7.90
2018-07-08T12:51:33.255Z,10.00
2018-07-08T12:52:33.197Z,9.70
2018-07-08T12:53:33.150Z,9.60
2018-07-08T12:54:33.108Z,9.60
2018-07-08T12:55:33.060Z,9.00
2018-07-08T12:56:33.018Z,8.70
2018-07-08T12:57:32.981Z,6.50
2018-07-08T12:58:32.924Z,8.50
2018-07-08T12:59:32.878Z,8.90
2018-07-08T13:00:32.826Z,7.80
2018-07-08T13:01:32.790Z,6.60
2018-07-08T13:02:32.737Z,8.20